aviador You're here:

KFAF Decoded Metar

FORT EUSTIS in VA, USA
Report Time2017-12-15 18:56:00
UTC Time2017-12-15 19:43:31
Flight Rules mvfr MVFR
Wind320° at 08 kt
W.Decomp.*RWY 32: 7.9 kt HW 1.5 kt RCW
W.Rank320° ranks 10
Current wind is above 320° avg. (7.9)
Visibility9999 m
Phenomena:N/A
Clouds:Broken 021 Hf
Broken 027 Hf
Broken 035 Hf
Expected CloudBase > 2,000 ft AGL from Temp-Dew spread
Ceiling2,100 ft
Temp06°C (ISA -9)
Dew Point01°C (71% RH)
AAT1.3°C
QNH1011 hPa
Density Alt-912 ft
Elevation13 ft
Report Wrong Elevation
Raw Report
METAR KFAF 151856Z AUTO 32008KT 10SM BKN021 BKN027 BKN035 06/01 A2985
RMK AO2 CIG 021V027 BKN021 V SCT SLPNO T00620007 $=

Extra information for KFAF:More info

Metar Taf Metar & Taf Last 4 Metars F.Rules Stats Wind Profile Meteogram Temp Stats Airport Information Weather charts Add Link Nearby VenuesMetar ALERT Operation Metar Decoded Social comments

AIRNAV info for KFAF